sensor_id;sensor_type;location;lat;lon;timestamp;temperature;humidity
11511;DHT22;5812;48.864;9.190;2023-04-06T00:01:37;0.00;99.90
11511;DHT22;5812;48.864;9.190;2023-04-06T00:04:02;-0.10;99.90
11511;DHT22;5812;48.864;9.190;2023-04-06T00:06:28;-0.20;99.90
11511;DHT22;5812;48.864;9.190;2023-04-06T00:08:54;-0.20;99.90
11511;DHT22;5812;48.864;9.190;2023-04-06T00:11:19;-0.10;99.90
11511;DHT22;5812;48.864;9.190;2023-04-06T00:13:45;0.10;99.90
11511;DHT22;5812;48.864;9.190;2023-04-06T00:16:11;0.00;99.90
11511;DHT22;5812;48.864;9.190;2023-04-06T00:18:36;0.00;99.90
11511;DHT22;5812;48.864;9.190;2023-04-06T00:21:03;-0.10;99.90
11511;DHT22;5812;48.864;9.190;2023-04-06T00:23:28;-0.30;99.90
11511;DHT22;5812;48.864;9.190;2023-04-06T00:25:54;-0.30;99.90
11511;DHT22;5812;48.864;9.190;2023-04-06T00:28:20;-0.30;99.90
11511;DHT22;5812;48.864;9.190;2023-04-06T00:30:51;-0.20;99.90
11511;DHT22;5812;48.864;9.190;2023-04-06T00:33:18;-0.30;99.90
11511;DHT22;5812;48.864;9.190;2023-04-06T00:35:44;-0.40;99.90
11511;DHT22;5812;48.864;9.190;2023-04-06T00:38:09;-0.50;99.90
11511;DHT22;5812;48.864;9.190;2023-04-06T00:40:35;-0.50;99.90
11511;DHT22;5812;48.864;9.190;2023-04-06T00:43:01;-0.40;99.90
11511;DHT22;5812;48.864;9.190;2023-04-06T00:45:27;-0.30;99.90
11511;DHT22;5812;48.864;9.190;2023-04-06T00:47:53;-0.50;99.90
11511;DHT22;5812;48.864;9.190;2023-04-06T00:50:18;-0.60;99.90
11511;DHT22;5812;48.864;9.190;2023-04-06T00:52:44;-0.60;99.90
11511;DHT22;5812;48.864;9.190;2023-04-06T00:55:10;-0.60;99.90
11511;DHT22;5812;48.864;9.190;2023-04-06T00:57:36;-0.50;99.90
11511;DHT22;5812;48.864;9.190;2023-04-06T01:00:02;-0.50;99.90
11511;DHT22;5812;48.864;9.190;2023-04-06T01:02:28;-0.50;99.90
11511;DHT22;5812;48.864;9.190;2023-04-06T01:04:54;-0.60;99.90
11511;DHT22;5812;48.864;9.190;2023-04-06T01:07:20;-0.70;99.90
11511;DHT22;5812;48.864;9.190;2023-04-06T01:09:45;-0.80;99.90
11511;DHT22;5812;48.864;9.190;2023-04-06T01:12:11;-0.80;99.90
11511;DHT22;5812;48.864;9.190;2023-04-06T01:14:37;-0.70;99.90
11511;DHT22;5812;48.864;9.190;2023-04-06T01:17:02;-0.60;99.90
11511;DHT22;5812;48.864;9.190;2023-04-06T01:19:28;-0.70;99.90
11511;DHT22;5812;48.864;9.190;2023-04-06T01:21:54;-0.70;99.90
11511;DHT22;5812;48.864;9.190;2023-04-06T01:24:20;-0.80;99.90
11511;DHT22;5812;48.864;9.190;2023-04-06T01:26:46;-0.80;99.90
11511;DHT22;5812;48.864;9.190;2023-04-06T01:29:12;-0.90;99.90
11511;DHT22;5812;48.864;9.190;2023-04-06T01:31:38;-0.90;99.90
11511;DHT22;5812;48.864;9.190;2023-04-06T01:34:04;-1.00;99.90
11511;DHT22;5812;48.864;9.190;2023-04-06T01:36:30;-1.10;99.90
11511;DHT22;5812;48.864;9.190;2023-04-06T01:38:56;-1.10;99.90
11511;DHT22;5812;48.864;9.190;2023-04-06T01:41:21;-1.10;99.90
11511;DHT22;5812;48.864;9.190;2023-04-06T01:43:48;-1.10;99.90
11511;DHT22;5812;48.864;9.190;2023-04-06T01:46:14;-1.00;99.90
11511;DHT22;5812;48.864;9.190;2023-04-06T01:48:40;-1.00;99.90
11511;DHT22;5812;48.864;9.190;2023-04-06T01:51:05;-1.20;99.90
11511;DHT22;5812;48.864;9.190;2023-04-06T01:53:32;-1.10;99.90
11511;DHT22;5812;48.864;9.190;2023-04-06T01:55:57;-1.10;99.90
11511;DHT22;5812;48.864;9.190;2023-04-06T01:58:23;-1.10;99.90
11511;DHT22;5812;48.864;9.190;2023-04-06T02:00:48;-1.20;99.90
11511;DHT22;5812;48.864;9.190;2023-04-06T02:03:14;-1.30;99.90
11511;DHT22;5812;48.864;9.190;2023-04-06T02:05:40;-1.30;99.90
11511;DHT22;5812;48.864;9.190;2023-04-06T02:08:06;-1.30;99.90
11511;DHT22;5812;48.864;9.190;2023-04-06T02:10:33;-1.30;99.90
11511;DHT22;5812;48.864;9.190;2023-04-06T02:12:58;-1.20;99.90
11511;DHT22;5812;48.864;9.190;2023-04-06T02:15:25;-1.20;99.90
11511;DHT22;5812;48.864;9.190;2023-04-06T02:17:51;-1.10;99.90
11511;DHT22;5812;48.864;9.190;2023-04-06T02:20:16;-1.20;99.90
11511;DHT22;5812;48.864;9.190;2023-04-06T02:22:42;-1.40;99.90
11511;DHT22;5812;48.864;9.190;2023-04-06T02:25:08;-1.40;99.90
11511;DHT22;5812;48.864;9.190;2023-04-06T02:27:34;-1.40;99.90
11511;DHT22;5812;48.864;9.190;2023-04-06T02:30:00;-1.40;99.90
11511;DHT22;5812;48.864;9.190;2023-04-06T02:32:26;-1.30;99.90
11511;DHT22;5812;48.864;9.190;2023-04-06T02:34:51;-1.30;99.90
11511;DHT22;5812;48.864;9.190;2023-04-06T02:37:17;-1.40;99.90
11511;DHT22;5812;48.864;9.190;2023-04-06T02:39:43;-1.60;99.90
11511;DHT22;5812;48.864;9.190;2023-04-06T02:42:08;-1.60;99.90
11511;DHT22;5812;48.864;9.190;2023-04-06T02:44:34;-1.50;99.90
11511;DHT22;5812;48.864;9.190;2023-04-06T02:47:00;-1.40;99.90
11511;DHT22;5812;48.864;9.190;2023-04-06T02:49:26;-1.30;99.90
11511;DHT22;5812;48.864;9.190;2023-04-06T02:51:51;-1.30;99.90
11511;DHT22;5812;48.864;9.190;2023-04-06T02:54:17;-1.40;99.90
11511;DHT22;5812;48.864;9.190;2023-04-06T02:56:43;-1.50;99.90
11511;DHT22;5812;48.864;9.190;2023-04-06T02:59:09;-1.60;99.90
11511;DHT22;5812;48.864;9.190;2023-04-06T03:01:34;-1.60;99.90
11511;DHT22;5812;48.864;9.190;2023-04-06T03:04:01;-1.50;1.00
11511;DHT22;5812;48.864;9.190;2023-04-06T03:06:27;-1.40;1.00
11511;DHT22;5812;48.864;9.190;2023-04-06T03:08:52;-1.40;1.00
11511;DHT22;5812;48.864;9.190;2023-04-06T03:11:18;-1.40;1.00
11511;DHT22;5812;48.864;9.190;2023-04-06T03:13:44;-1.40;1.00
11511;DHT22;5812;48.864;9.190;2023-04-06T03:16:09;-1.50;1.00
11511;DHT22;5812;48.864;9.190;2023-04-06T03:18:35;-1.60;1.00
11511;DHT22;5812;48.864;9.190;2023-04-06T03:21:01;-1.70;1.00
11511;DHT22;5812;48.864;9.190;2023-04-06T03:23:26;-1.60;1.00
11511;DHT22;5812;48.864;9.190;2023-04-06T03:25:52;-1.70;1.00
11511;DHT22;5812;48.864;9.190;2023-04-06T03:28:17;-1.70;1.00
11511;DHT22;5812;48.864;9.190;2023-04-06T03:30:43;-1.70;1.00
11511;DHT22;5812;48.864;9.190;2023-04-06T03:33:09;-1.80;1.00
11511;DHT22;5812;48.864;9.190;2023-04-06T03:35:34;-1.80;1.00
11511;DHT22;5812;48.864;9.190;2023-04-06T03:38:02;-1.80;1.00
11511;DHT22;5812;48.864;9.190;2023-04-06T03:40:28;-1.70;1.00
11511;DHT22;5812;48.864;9.190;2023-04-06T03:42:53;-1.80;1.00
11511;DHT22;5812;48.864;9.190;2023-04-06T03:45:19;-1.80;1.00
11511;DHT22;5812;48.864;9.190;2023-04-06T03:47:45;-1.80;1.00
11511;DHT22;5812;48.864;9.190;2023-04-06T03:50:11;-1.80;1.00
11511;DHT22;5812;48.864;9.190;2023-04-06T03:52:37;-1.80;1.00
11511;DHT22;5812;48.864;9.190;2023-04-06T03:55:03;-1.80;1.00
11511;DHT22;5812;48.864;9.190;2023-04-06T03:57:28;-1.70;1.00
11511;DHT22;5812;48.864;9.190;2023-04-06T03:59:54;-1.80;1.00
11511;DHT22;5812;48.864;9.190;2023-04-06T04:02:20;-1.90;1.00
11511;DHT22;5812;48.864;9.190;2023-04-06T04:04:45;-1.90;1.00
11511;DHT22;5812;48.864;9.190;2023-04-06T04:07:11;-1.80;1.00
11511;DHT22;5812;48.864;9.190;2023-04-06T04:09:37;-1.90;1.00
11511;DHT22;5812;48.864;9.190;2023-04-06T04:12:03;-2.00;1.00
11511;DHT22;5812;48.864;9.190;2023-04-06T04:14:28;-2.00;1.00
11511;DHT22;5812;48.864;9.190;2023-04-06T04:16:54;-2.00;1.00
11511;DHT22;5812;48.864;9.190;2023-04-06T04:19:19;-1.80;1.00
11511;DHT22;5812;48.864;9.190;2023-04-06T04:21:46;-1.80;1.00
11511;DHT22;5812;48.864;9.190;2023-04-06T04:24:12;-1.90;1.00
11511;DHT22;5812;48.864;9.190;2023-04-06T04:26:38;-2.00;1.00
11511;DHT22;5812;48.864;9.190;2023-04-06T04:29:04;-2.00;1.00
11511;DHT22;5812;48.864;9.190;2023-04-06T04:31:30;-2.10;1.00
11511;DHT22;5812;48.864;9.190;2023-04-06T04:33:56;-2.10;1.00
11511;DHT22;5812;48.864;9.190;2023-04-06T04:36:21;-2.00;1.00
11511;DHT22;5812;48.864;9.190;2023-04-06T04:38:48;-2.00;1.00
11511;DHT22;5812;48.864;9.190;2023-04-06T04:41:14;-2.00;1.00
11511;DHT22;5812;48.864;9.190;2023-04-06T04:43:39;-2.10;1.00
11511;DHT22;5812;48.864;9.190;2023-04-06T04:46:05;-2.10;1.00
11511;DHT22;5812;48.864;9.190;2023-04-06T04:48:32;-2.20;1.00
11511;DHT22;5812;48.864;9.190;2023-04-06T04:50:57;-2.10;1.00
11511;DHT22;5812;48.864;9.190;2023-04-06T04:53:23;-2.00;1.00
11511;DHT22;5812;48.864;9.190;2023-04-06T04:55:48;-2.00;1.00
11511;DHT22;5812;48.864;9.190;2023-04-06T04:58:14;-2.00;1.00
11511;DHT22;5812;48.864;9.190;2023-04-06T05:00:43;-2.00;1.00
11511;DHT22;5812;48.864;9.190;2023-04-06T05:03:09;-2.00;1.00
11511;DHT22;5812;48.864;9.190;2023-04-06T05:05:39;-1.90;1.00
11511;DHT22;5812;48.864;9.190;2023-04-06T05:08:04;-1.80;1.00
11511;DHT22;5812;48.864;9.190;2023-04-06T05:10:30;-1.70;1.00
11511;DHT22;5812;48.864;9.190;2023-04-06T05:12:56;-1.60;1.00
11511;DHT22;5812;48.864;9.190;2023-04-06T05:15:22;-1.60;1.00
11511;DHT22;5812;48.864;9.190;2023-04-06T05:17:47;-1.60;1.00
11511;DHT22;5812;48.864;9.190;2023-04-06T05:20:13;-1.60;1.00
11511;DHT22;5812;48.864;9.190;2023-04-06T05:22:39;-1.50;1.00
11511;DHT22;5812;48.864;9.190;2023-04-06T05:25:05;-1.40;1.00
11511;DHT22;5812;48.864;9.190;2023-04-06T05:27:30;-1.30;1.00
11511;DHT22;5812;48.864;9.190;2023-04-06T05:29:56;-1.20;1.00
11511;DHT22;5812;48.864;9.190;2023-04-06T05:32:22;-1.00;1.00
11511;DHT22;5812;48.864;9.190;2023-04-06T05:34:49;-0.90;1.00
11511;DHT22;5812;48.864;9.190;2023-04-06T05:37:15;-0.80;1.00
11511;DHT22;5812;48.864;9.190;2023-04-06T05:39:41;-0.70;1.00
11511;DHT22;5812;48.864;9.190;2023-04-06T05:42:07;-0.50;1.00
11511;DHT22;5812;48.864;9.190;2023-04-06T05:44:33;-0.40;1.00
11511;DHT22;5812;48.864;9.190;2023-04-06T05:46:58;-0.30;1.00
11511;DHT22;5812;48.864;9.190;2023-04-06T05:49:24;-0.10;99.90
11511;DHT22;5812;48.864;9.190;2023-04-06T05:51:50;0.00;99.90
11511;DHT22;5812;48.864;9.190;2023-04-06T05:54:15;0.20;99.90
11511;DHT22;5812;48.864;9.190;2023-04-06T05:56:41;0.30;99.90
11511;DHT22;5812;48.864;9.190;2023-04-06T05:59:06;0.40;99.90
11511;DHT22;5812;48.864;9.190;2023-04-06T06:01:33;0.50;99.90
11511;DHT22;5812;48.864;9.190;2023-04-06T06:04:02;0.70;99.90
11511;DHT22;5812;48.864;9.190;2023-04-06T06:06:29;0.90;99.90
11511;DHT22;5812;48.864;9.190;2023-04-06T06:08:57;1.10;99.90
11511;DHT22;5812;48.864;9.190;2023-04-06T06:11:27;1.40;99.90
11511;DHT22;5812;48.864;9.190;2023-04-06T06:13:53;1.60;99.90
11511;DHT22;5812;48.864;9.190;2023-04-06T06:16:19;1.80;99.90
11511;DHT22;5812;48.864;9.190;2023-04-06T06:18:45;2.10;99.90
11511;DHT22;5812;48.864;9.190;2023-04-06T06:21:10;2.20;99.90
11511;DHT22;5812;48.864;9.190;2023-04-06T06:23:41;2.30;99.90
11511;DHT22;5812;48.864;9.190;2023-04-06T06:26:07;2.20;99.90
11511;DHT22;5812;48.864;9.190;2023-04-06T06:28:33;2.50;99.90
11511;DHT22;5812;48.864;9.190;2023-04-06T06:30:58;2.70;99.90
11511;DHT22;5812;48.864;9.190;2023-04-06T06:33:24;3.00;99.90
11511;DHT22;5812;48.864;9.190;2023-04-06T06:35:51;3.10;99.90
11511;DHT22;5812;48.864;9.190;2023-04-06T06:38:17;3.30;99.90
11511;DHT22;5812;48.864;9.190;2023-04-06T06:40:43;3.50;99.90
11511;DHT22;5812;48.864;9.190;2023-04-06T06:43:08;3.40;99.90
11511;DHT22;5812;48.864;9.190;2023-04-06T06:45:34;3.70;99.90
11511;DHT22;5812;48.864;9.190;2023-04-06T06:48:00;3.80;99.90
11511;DHT22;5812;48.864;9.190;2023-04-06T06:50:26;3.90;99.90
11511;DHT22;5812;48.864;9.190;2023-04-06T06:52:51;4.20;99.90
11511;DHT22;5812;48.864;9.190;2023-04-06T06:55:17;4.10;99.90
11511;DHT22;5812;48.864;9.190;2023-04-06T06:57:44;4.30;99.90
11511;DHT22;5812;48.864;9.190;2023-04-06T07:00:12;4.40;99.90
11511;DHT22;5812;48.864;9.190;2023-04-06T07:02:38;4.90;99.90
11511;DHT22;5812;48.864;9.190;2023-04-06T07:05:05;4.60;99.90
11511;DHT22;5812;48.864;9.190;2023-04-06T07:07:39;4.70;99.90
11511;DHT22;5812;48.864;9.190;2023-04-06T07:10:06;5.10;99.90
11511;DHT22;5812;48.864;9.190;2023-04-06T07:12:31;5.20;99.90
11511;DHT22;5812;48.864;9.190;2023-04-06T07:14:57;5.20;99.90
11511;DHT22;5812;48.864;9.190;2023-04-06T07:17:23;5.40;99.90
11511;DHT22;5812;48.864;9.190;2023-04-06T07:19:48;5.40;99.90
11511;DHT22;5812;48.864;9.190;2023-04-06T07:22:14;5.70;99.90
11511;DHT22;5812;48.864;9.190;2023-04-06T07:24:40;6.00;99.90
11511;DHT22;5812;48.864;9.190;2023-04-06T07:27:05;6.00;99.90
11511;DHT22;5812;48.864;9.190;2023-04-06T07:29:31;6.30;99.90
11511;DHT22;5812;48.864;9.190;2023-04-06T07:31:57;6.40;99.90
11511;DHT22;5812;48.864;9.190;2023-04-06T07:34:22;6.50;99.90
11511;DHT22;5812;48.864;9.190;2023-04-06T07:36:48;6.70;99.90
11511;DHT22;5812;48.864;9.190;2023-04-06T07:39:14;6.80;99.90
11511;DHT22;5812;48.864;9.190;2023-04-06T07:41:40;6.90;99.90
11511;DHT22;5812;48.864;9.190;2023-04-06T07:44:06;7.00;99.90
11511;DHT22;5812;48.864;9.190;2023-04-06T07:46:31;7.20;99.90
11511;DHT22;5812;48.864;9.190;2023-04-06T07:48:58;7.30;99.90
11511;DHT22;5812;48.864;9.190;2023-04-06T07:51:24;7.40;99.90
11511;DHT22;5812;48.864;9.190;2023-04-06T07:53:50;7.50;99.90
11511;DHT22;5812;48.864;9.190;2023-04-06T07:56:16;7.70;99.90
11511;DHT22;5812;48.864;9.190;2023-04-06T07:58:42;7.90;99.90
11511;DHT22;5812;48.864;9.190;2023-04-06T08:01:08;7.90;99.90
11511;DHT22;5812;48.864;9.190;2023-04-06T08:03:34;8.40;99.90
11511;DHT22;5812;48.864;9.190;2023-04-06T08:06:00;8.20;99.90
11511;DHT22;5812;48.864;9.190;2023-04-06T08:08:26;8.30;99.90
11511;DHT22;5812;48.864;9.190;2023-04-06T08:10:52;8.80;99.90
11511;DHT22;5812;48.864;9.190;2023-04-06T08:13:17;8.80;99.90
11511;DHT22;5812;48.864;9.190;2023-04-06T08:15:43;8.90;99.90
11511;DHT22;5812;48.864;9.190;2023-04-06T08:18:09;8.80;99.90
11511;DHT22;5812;48.864;9.190;2023-04-06T08:20:35;9.20;99.90
11511;DHT22;5812;48.864;9.190;2023-04-06T08:23:00;9.30;99.90
11511;DHT22;5812;48.864;9.190;2023-04-06T08:25:26;10.00;99.90
11511;DHT22;5812;48.864;9.190;2023-04-06T08:27:52;9.60;99.90
11511;DHT22;5812;48.864;9.190;2023-04-06T08:30:18;9.50;99.90
11511;DHT22;5812;48.864;9.190;2023-04-06T08:32:45;9.80;99.90
11511;DHT22;5812;48.864;9.190;2023-04-06T08:35:11;9.90;99.90
11511;DHT22;5812;48.864;9.190;2023-04-06T08:37:36;10.10;99.90
11511;DHT22;5812;48.864;9.190;2023-04-06T08:40:02;10.70;99.90
11511;DHT22;5812;48.864;9.190;2023-04-06T08:42:34;10.60;99.90
11511;DHT22;5812;48.864;9.190;2023-04-06T08:45:04;10.60;99.90
11511;DHT22;5812;48.864;9.190;2023-04-06T08:47:30;11.10;99.90
11511;DHT22;5812;48.864;9.190;2023-04-06T08:49:56;11.30;99.90
11511;DHT22;5812;48.864;9.190;2023-04-06T08:52:25;11.50;99.90
11511;DHT22;5812;48.864;9.190;2023-04-06T08:54:52;11.80;99.90
11511;DHT22;5812;48.864;9.190;2023-04-06T08:57:18;11.80;99.90
11511;DHT22;5812;48.864;9.190;2023-04-06T08:59:45;11.50;99.90
11511;DHT22;5812;48.864;9.190;2023-04-06T09:02:17;12.30;99.90
11511;DHT22;5812;48.864;9.190;2023-04-06T09:04:43;12.50;99.90
11511;DHT22;5812;48.864;9.190;2023-04-06T09:07:09;12.70;99.90
11511;DHT22;5812;48.864;9.190;2023-04-06T09:09:35;12.70;99.90
11511;DHT22;5812;48.864;9.190;2023-04-06T09:12:02;12.70;99.90
11511;DHT22;5812;48.864;9.190;2023-04-06T09:14:38;12.90;99.90
11511;DHT22;5812;48.864;9.190;2023-04-06T09:17:05;13.20;99.90
11511;DHT22;5812;48.864;9.190;2023-04-06T09:19:31;13.10;99.90
11511;DHT22;5812;48.864;9.190;2023-04-06T09:22:04;13.20;99.90
11511;DHT22;5812;48.864;9.190;2023-04-06T09:24:51;13.40;99.90
11511;DHT22;5812;48.864;9.190;2023-04-06T09:27:17;13.50;99.90
11511;DHT22;5812;48.864;9.190;2023-04-06T09:29:44;13.20;99.90
11511;DHT22;5812;48.864;9.190;2023-04-06T09:32:10;13.20;99.90
11511;DHT22;5812;48.864;9.190;2023-04-06T09:34:39;14.00;99.90
11511;DHT22;5812;48.864;9.190;2023-04-06T09:37:18;13.40;99.90
11511;DHT22;5812;48.864;9.190;2023-04-06T09:39:45;13.40;99.90
11511;DHT22;5812;48.864;9.190;2023-04-06T09:42:24;13.60;99.90
11511;DHT22;5812;48.864;9.190;2023-04-06T09:44:50;13.10;99.90
11511;DHT22;5812;48.864;9.190;2023-04-06T09:47:17;13.80;99.90
11511;DHT22;5812;48.864;9.190;2023-04-06T09:49:43;14.00;99.90
11511;DHT22;5812;48.864;9.190;2023-04-06T09:52:11;14.50;99.90
11511;DHT22;5812;48.864;9.190;2023-04-06T09:54:38;14.80;99.90
11511;DHT22;5812;48.864;9.190;2023-04-06T09:57:27;14.70;99.90
11511;DHT22;5812;48.864;9.190;2023-04-06T10:00:05;13.90;99.90
11511;DHT22;5812;48.864;9.190;2023-04-06T10:02:48;13.20;99.90
11511;DHT22;5812;48.864;9.190;2023-04-06T10:07:56;13.20;99.90
11511;DHT22;5812;48.864;9.190;2023-04-06T10:10:22;13.90;99.90
11511;DHT22;5812;48.864;9.190;2023-04-06T10:12:48;14.90;99.90
11511;DHT22;5812;48.864;9.190;2023-04-06T10:15:15;14.30;99.90
11511;DHT22;5812;48.864;9.190;2023-04-06T10:17:41;14.20;99.90
11511;DHT22;5812;48.864;9.190;2023-04-06T10:20:13;15.20;99.90
11511;DHT22;5812;48.864;9.190;2023-04-06T10:22:53;15.10;99.90
11511;DHT22;5812;48.864;9.190;2023-04-06T10:25:29;14.00;99.90
11511;DHT22;5812;48.864;9.190;2023-04-06T10:28:01;13.80;99.90
11511;DHT22;5812;48.864;9.190;2023-04-06T10:30:28;14.00;99.90
11511;DHT22;5812;48.864;9.190;2023-04-06T10:32:54;14.30;99.90
11511;DHT22;5812;48.864;9.190;2023-04-06T10:35:20;14.20;99.90
11511;DHT22;5812;48.864;9.190;2023-04-06T10:37:47;14.10;99.90
11511;DHT22;5812;48.864;9.190;2023-04-06T10:40:26;14.70;99.90
11511;DHT22;5812;48.864;9.190;2023-04-06T10:42:55;16.10;99.90
11511;DHT22;5812;48.864;9.190;2023-04-06T10:45:24;14.90;99.90
11511;DHT22;5812;48.864;9.190;2023-04-06T10:47:52;14.60;99.90
11511;DHT22;5812;48.864;9.190;2023-04-06T10:50:19;14.40;99.90
11511;DHT22;5812;48.864;9.190;2023-04-06T10:52:45;14.60;99.90
11511;DHT22;5812;48.864;9.190;2023-04-06T10:55:13;15.60;99.90
11511;DHT22;5812;48.864;9.190;2023-04-06T10:57:39;16.80;99.90
11511;DHT22;5812;48.864;9.190;2023-04-06T11:00:06;16.20;99.90
11511;DHT22;5812;48.864;9.190;2023-04-06T11:02:32;15.30;99.90
11511;DHT22;5812;48.864;9.190;2023-04-06T11:04:58;15.50;99.90
11511;DHT22;5812;48.864;9.190;2023-04-06T11:07:25;15.60;99.90
11511;DHT22;5812;48.864;9.190;2023-04-06T11:09:52;15.80;99.90
11511;DHT22;5812;48.864;9.190;2023-04-06T11:12:27;15.30;99.90
11511;DHT22;5812;48.864;9.190;2023-04-06T11:14:58;15.40;99.90
11511;DHT22;5812;48.864;9.190;2023-04-06T11:17:36;15.30;99.90
11511;DHT22;5812;48.864;9.190;2023-04-06T11:20:03;14.60;99.90
11511;DHT22;5812;48.864;9.190;2023-04-06T11:22:30;15.70;99.90
11511;DHT22;5812;48.864;9.190;2023-04-06T11:25:08;16.60;99.90
11511;DHT22;5812;48.864;9.190;2023-04-06T11:27:35;16.90;99.90
11511;DHT22;5812;48.864;9.190;2023-04-06T11:30:02;17.00;99.90
11511;DHT22;5812;48.864;9.190;2023-04-06T11:32:28;16.80;99.90
11511;DHT22;5812;48.864;9.190;2023-04-06T11:34:54;17.00;99.90
11511;DHT22;5812;48.864;9.190;2023-04-06T11:37:19;16.30;99.90
11511;DHT22;5812;48.864;9.190;2023-04-06T11:39:50;16.20;99.90
11511;DHT22;5812;48.864;9.190;2023-04-06T11:42:26;16.90;99.90
11511;DHT22;5812;48.864;9.190;2023-04-06T11:44:56;18.10;99.90
11511;DHT22;5812;48.864;9.190;2023-04-06T11:47:36;17.30;99.90
11511;DHT22;5812;48.864;9.190;2023-04-06T11:52:33;17.70;99.90
11511;DHT22;5812;48.864;9.190;2023-04-06T11:55:09;18.70;99.90
11511;DHT22;5812;48.864;9.190;2023-04-06T11:57:35;19.40;99.90
11511;DHT22;5812;48.864;9.190;2023-04-06T12:00:01;20.20;99.90
11511;DHT22;5812;48.864;9.190;2023-04-06T12:02:26;19.40;99.90
11511;DHT22;5812;48.864;9.190;2023-04-06T12:04:52;18.80;99.90
11511;DHT22;5812;48.864;9.190;2023-04-06T12:07:17;20.20;99.90
11511;DHT22;5812;48.864;9.190;2023-04-06T12:09:43;21.40;99.90
11511;DHT22;5812;48.864;9.190;2023-04-06T12:12:09;21.00;99.90
11511;DHT22;5812;48.864;9.190;2023-04-06T12:14:34;22.20;99.90
11511;DHT22;5812;48.864;9.190;2023-04-06T12:17:00;20.80;99.90
11511;DHT22;5812;48.864;9.190;2023-04-06T12:19:26;20.70;99.90
11511;DHT22;5812;48.864;9.190;2023-04-06T12:21:55;21.10;99.90
11511;DHT22;5812;48.864;9.190;2023-04-06T12:24:22;20.20;99.90
11511;DHT22;5812;48.864;9.190;2023-04-06T12:26:47;19.70;99.90
11511;DHT22;5812;48.864;9.190;2023-04-06T12:29:13;19.70;99.90
11511;DHT22;5812;48.864;9.190;2023-04-06T12:31:39;21.20;99.90
11511;DHT22;5812;48.864;9.190;2023-04-06T12:34:06;22.80;99.90
11511;DHT22;5812;48.864;9.190;2023-04-06T12:36:33;22.80;99.90
11511;DHT22;5812;48.864;9.190;2023-04-06T12:38:59;23.90;99.90
11511;DHT22;5812;48.864;9.190;2023-04-06T12:41:25;22.00;99.90
11511;DHT22;5812;48.864;9.190;2023-04-06T12:43:51;22.80;99.90
11511;DHT22;5812;48.864;9.190;2023-04-06T12:46:17;23.60;99.90
11511;DHT22;5812;48.864;9.190;2023-04-06T12:48:43;23.00;99.90
11511;DHT22;5812;48.864;9.190;2023-04-06T12:51:09;22.20;99.90
11511;DHT22;5812;48.864;9.190;2023-04-06T12:53:35;22.50;99.90
11511;DHT22;5812;48.864;9.190;2023-04-06T12:56:01;23.50;99.90
11511;DHT22;5812;48.864;9.190;2023-04-06T12:58:27;24.00;99.90
11511;DHT22;5812;48.864;9.190;2023-04-06T13:00:55;23.80;99.90
11511;DHT22;5812;48.864;9.190;2023-04-06T13:03:21;24.20;99.90
11511;DHT22;5812;48.864;9.190;2023-04-06T13:05:49;23.70;99.90
11511;DHT22;5812;48.864;9.190;2023-04-06T13:08:15;24.70;99.90
11511;DHT22;5812;48.864;9.190;2023-04-06T13:13:10;24.20;99.90
11511;DHT22;5812;48.864;9.190;2023-04-06T13:15:36;23.40;99.90
11511;DHT22;5812;48.864;9.190;2023-04-06T13:18:02;24.10;99.90
11511;DHT22;5812;48.864;9.190;2023-04-06T13:20:28;22.40;99.90
11511;DHT22;5812;48.864;9.190;2023-04-06T13:22:54;22.40;99.90
11511;DHT22;5812;48.864;9.190;2023-04-06T13:25:19;22.30;99.90
11511;DHT22;5812;48.864;9.190;2023-04-06T13:27:45;24.30;99.90
11511;DHT22;5812;48.864;9.190;2023-04-06T13:30:13;24.50;99.90
11511;DHT22;5812;48.864;9.190;2023-04-06T13:32:39;24.30;99.90
11511;DHT22;5812;48.864;9.190;2023-04-06T13:35:05;22.20;99.90
11511;DHT22;5812;48.864;9.190;2023-04-06T13:37:32;21.20;99.90
11511;DHT22;5812;48.864;9.190;2023-04-06T13:39:57;20.90;99.90
11511;DHT22;5812;48.864;9.190;2023-04-06T13:42:23;20.70;99.90
11511;DHT22;5812;48.864;9.190;2023-04-06T13:44:49;20.40;99.90
11511;DHT22;5812;48.864;9.190;2023-04-06T13:47:16;21.90;99.90
11511;DHT22;5812;48.864;9.190;2023-04-06T13:49:43;20.60;99.90
11511;DHT22;5812;48.864;9.190;2023-04-06T13:52:08;20.70;99.90
11511;DHT22;5812;48.864;9.190;2023-04-06T13:54:35;20.50;99.90
11511;DHT22;5812;48.864;9.190;2023-04-06T13:57:01;18.40;99.90
11511;DHT22;5812;48.864;9.190;2023-04-06T13:59:34;17.70;99.90
11511;DHT22;5812;48.864;9.190;2023-04-06T14:02:06;18.70;99.90
11511;DHT22;5812;48.864;9.190;2023-04-06T14:04:33;18.30;99.90
11511;DHT22;5812;48.864;9.190;2023-04-06T14:07:00;17.70;99.90
11511;DHT22;5812;48.864;9.190;2023-04-06T14:09:25;17.20;99.90
11511;DHT22;5812;48.864;9.190;2023-04-06T14:11:51;17.20;99.90
11511;DHT22;5812;48.864;9.190;2023-04-06T14:14:17;18.30;99.90
11511;DHT22;5812;48.864;9.190;2023-04-06T14:16:43;18.60;99.90
11511;DHT22;5812;48.864;9.190;2023-04-06T14:19:10;18.30;99.90
11511;DHT22;5812;48.864;9.190;2023-04-06T14:21:38;18.80;99.90
11511;DHT22;5812;48.864;9.190;2023-04-06T14:24:05;18.20;99.90
11511;DHT22;5812;48.864;9.190;2023-04-06T14:26:31;18.50;99.90
11511;DHT22;5812;48.864;9.190;2023-04-06T14:28:58;18.60;99.90
11511;DHT22;5812;48.864;9.190;2023-04-06T14:31:24;18.70;99.90
11511;DHT22;5812;48.864;9.190;2023-04-06T14:33:49;18.10;99.90
11511;DHT22;5812;48.864;9.190;2023-04-06T14:36:15;18.10;99.90
11511;DHT22;5812;48.864;9.190;2023-04-06T14:38:41;18.50;99.90
11511;DHT22;5812;48.864;9.190;2023-04-06T14:41:14;18.10;99.90
11511;DHT22;5812;48.864;9.190;2023-04-06T14:43:40;18.00;99.90
11511;DHT22;5812;48.864;9.190;2023-04-06T14:46:06;17.80;99.90
11511;DHT22;5812;48.864;9.190;2023-04-06T14:48:34;17.80;99.90
11511;DHT22;5812;48.864;9.190;2023-04-06T14:50:59;17.20;99.90
11511;DHT22;5812;48.864;9.190;2023-04-06T14:53:25;17.20;99.90
11511;DHT22;5812;48.864;9.190;2023-04-06T14:55:52;17.30;99.90
11511;DHT22;5812;48.864;9.190;2023-04-06T14:58:21;17.70;99.90
11511;DHT22;5812;48.864;9.190;2023-04-06T15:00:47;17.60;99.90
11511;DHT22;5812;48.864;9.190;2023-04-06T15:03:13;17.70;99.90
11511;DHT22;5812;48.864;9.190;2023-04-06T15:05:39;17.00;99.90
11511;DHT22;5812;48.864;9.190;2023-04-06T15:08:04;16.70;99.90
11511;DHT22;5812;48.864;9.190;2023-04-06T15:10:33;16.60;99.90
11511;DHT22;5812;48.864;9.190;2023-04-06T15:12:59;16.70;99.90
11511;DHT22;5812;48.864;9.190;2023-04-06T15:15:25;16.80;99.90
11511;DHT22;5812;48.864;9.190;2023-04-06T15:17:51;16.90;99.90
11511;DHT22;5812;48.864;9.190;2023-04-06T15:20:17;16.40;99.90
11511;DHT22;5812;48.864;9.190;2023-04-06T15:22:42;15.70;99.90
11511;DHT22;5812;48.864;9.190;2023-04-06T15:25:08;15.40;99.90
11511;DHT22;5812;48.864;9.190;2023-04-06T15:27:34;15.30;99.90
11511;DHT22;5812;48.864;9.190;2023-04-06T15:29:59;15.10;99.90
11511;DHT22;5812;48.864;9.190;2023-04-06T15:32:25;15.00;99.90
11511;DHT22;5812;48.864;9.190;2023-04-06T15:34:52;14.80;99.90
11511;DHT22;5812;48.864;9.190;2023-04-06T15:37:18;14.70;99.90
11511;DHT22;5812;48.864;9.190;2023-04-06T15:39:43;14.90;99.90
11511;DHT22;5812;48.864;9.190;2023-04-06T15:42:09;14.80;99.90
11511;DHT22;5812;48.864;9.190;2023-04-06T15:44:35;14.90;99.90
11511;DHT22;5812;48.864;9.190;2023-04-06T15:47:00;14.60;99.90
11511;DHT22;5812;48.864;9.190;2023-04-06T15:49:26;14.40;99.90
11511;DHT22;5812;48.864;9.190;2023-04-06T15:51:52;14.40;99.90
11511;DHT22;5812;48.864;9.190;2023-04-06T15:54:17;14.80;99.90
11511;DHT22;5812;48.864;9.190;2023-04-06T15:56:45;15.00;99.90